sensor_id;sensor_type;location;lat;lon;timestamp;pressure;altitude;pressure_sealevel;temperature
19040;BMP180;9652;49.014;12.052;2023-02-28T00:00:17;98530.00;;;1.90
19040;BMP180;9652;49.014;12.052;2023-02-28T00:02:46;98571.00;;;1.90
19040;BMP180;9652;49.014;12.052;2023-02-28T00:05:19;98555.00;;;1.90
19040;BMP180;9652;49.014;12.052;2023-02-28T00:07:47;98554.00;;;1.90
19040;BMP180;9652;49.014;12.052;2023-02-28T00:10:18;98558.00;;;1.90
19040;BMP180;9652;49.014;12.052;2023-02-28T00:12:46;98544.00;;;1.90
19040;BMP180;9652;49.014;12.052;2023-02-28T00:15:14;98537.00;;;1.90
19040;BMP180;9652;49.014;12.052;2023-02-28T00:17:41;98555.00;;;1.90
19040;BMP180;9652;49.014;12.052;2023-02-28T00:20:10;98558.00;;;1.80
19040;BMP180;9652;49.014;12.052;2023-02-28T00:22:42;98546.00;;;1.80
19040;BMP180;9652;49.014;12.052;2023-02-28T00:25:13;98554.00;;;1.80
19040;BMP180;9652;49.014;12.052;2023-02-28T00:27:41;98540.00;;;1.80
19040;BMP180;9652;49.014;12.052;2023-02-28T00:30:12;98530.00;;;1.80
19040;BMP180;9652;49.014;12.052;2023-02-28T00:32:40;98544.00;;;1.80
19040;BMP180;9652;49.014;12.052;2023-02-28T00:35:09;98539.00;;;1.80
19040;BMP180;9652;49.014;12.052;2023-02-28T00:37:38;98525.00;;;1.60
19040;BMP180;9652;49.014;12.052;2023-02-28T00:40:07;98534.00;;;1.80
19040;BMP180;9652;49.014;12.052;2023-02-28T00:42:36;98536.00;;;1.70
19040;BMP180;9652;49.014;12.052;2023-02-28T00:45:04;98531.00;;;1.70
19040;BMP180;9652;49.014;12.052;2023-02-28T00:47:32;98521.00;;;1.70
19040;BMP180;9652;49.014;12.052;2023-02-28T00:50:00;98526.00;;;1.70
19040;BMP180;9652;49.014;12.052;2023-02-28T00:52:27;98528.00;;;1.70
19040;BMP180;9652;49.014;12.052;2023-02-28T00:54:56;98527.00;;;1.70
19040;BMP180;9652;49.014;12.052;2023-02-28T00:57:23;98520.00;;;1.70
19040;BMP180;9652;49.014;12.052;2023-02-28T00:59:50;98531.00;;;1.70
19040;BMP180;9652;49.014;12.052;2023-02-28T01:02:21;98518.00;;;1.70
19040;BMP180;9652;49.014;12.052;2023-02-28T01:04:48;98526.00;;;1.70
19040;BMP180;9652;49.014;12.052;2023-02-28T01:07:16;98496.00;;;1.60
19040;BMP180;9652;49.014;12.052;2023-02-28T01:09:43;98515.00;;;1.60
19040;BMP180;9652;49.014;12.052;2023-02-28T01:12:11;98518.00;;;1.60
19040;BMP180;9652;49.014;12.052;2023-02-28T01:14:38;98516.00;;;1.60
19040;BMP180;9652;49.014;12.052;2023-02-28T01:17:05;98516.00;;;1.60
19040;BMP180;9652;49.014;12.052;2023-02-28T01:19:32;98520.00;;;1.60
19040;BMP180;9652;49.014;12.052;2023-02-28T01:22:01;98514.00;;;1.60
19040;BMP180;9652;49.014;12.052;2023-02-28T01:24:29;98512.00;;;1.60
19040;BMP180;9652;49.014;12.052;2023-02-28T01:26:56;98512.00;;;1.50
19040;BMP180;9652;49.014;12.052;2023-02-28T01:29:24;98506.00;;;1.60
19040;BMP180;9652;49.014;12.052;2023-02-28T01:31:52;98511.00;;;1.50
19040;BMP180;9652;49.014;12.052;2023-02-28T01:34:19;98487.00;;;1.50
19040;BMP180;9652;49.014;12.052;2023-02-28T01:36:46;98519.00;;;1.50
19040;BMP180;9652;49.014;12.052;2023-02-28T01:39:13;98515.00;;;1.50
19040;BMP180;9652;49.014;12.052;2023-02-28T01:41:41;98491.00;;;1.50
19040;BMP180;9652;49.014;12.052;2023-02-28T01:45:00;98509.00;;;1.50
19040;BMP180;9652;49.014;12.052;2023-02-28T01:47:32;98503.00;;;1.40
19040;BMP180;9652;49.014;12.052;2023-02-28T01:50:06;98495.00;;;1.40
19040;BMP180;9652;49.014;12.052;2023-02-28T01:52:34;98496.00;;;1.40
19040;BMP180;9652;49.014;12.052;2023-02-28T01:55:04;98491.00;;;1.40
19040;BMP180;9652;49.014;12.052;2023-02-28T01:57:36;98496.00;;;1.40
19040;BMP180;9652;49.014;12.052;2023-02-28T02:00:10;98503.00;;;1.40
19040;BMP180;9652;49.014;12.052;2023-02-28T02:02:40;98491.00;;;1.40
19040;BMP180;9652;49.014;12.052;2023-02-28T02:05:12;98501.00;;;1.40
19040;BMP180;9652;49.014;12.052;2023-02-28T02:07:44;98492.00;;;1.40
19040;BMP180;9652;49.014;12.052;2023-02-28T02:10:14;98481.00;;;1.40
19040;BMP180;9652;49.014;12.052;2023-02-28T02:15:56;98477.00;;;1.30
19040;BMP180;9652;49.014;12.052;2023-02-28T02:18:34;98485.00;;;1.30
19040;BMP180;9652;49.014;12.052;2023-02-28T02:24:59;98490.00;;;1.30
19040;BMP180;9652;49.014;12.052;2023-02-28T02:31:12;98479.00;;;1.30
19040;BMP180;9652;49.014;12.052;2023-02-28T02:34:23;98495.00;;;1.30
19040;BMP180;9652;49.014;12.052;2023-02-28T02:37:06;98492.00;;;1.30
19040;BMP180;9652;49.014;12.052;2023-02-28T02:39:45;98487.00;;;1.20
19040;BMP180;9652;49.014;12.052;2023-02-28T02:42:21;98456.00;;;1.30
19040;BMP180;9652;49.014;12.052;2023-02-28T02:44:59;98489.00;;;1.20
19040;BMP180;9652;49.014;12.052;2023-02-28T02:47:30;98493.00;;;1.20
19040;BMP180;9652;49.014;12.052;2023-02-28T02:50:05;98495.00;;;1.20
19040;BMP180;9652;49.014;12.052;2023-02-28T02:52:40;98480.00;;;1.20
19040;BMP180;9652;49.014;12.052;2023-02-28T02:55:11;98496.00;;;1.20
19040;BMP180;9652;49.014;12.052;2023-02-28T02:57:46;98497.00;;;1.20
19040;BMP180;9652;49.014;12.052;2023-02-28T03:00:18;98501.00;;;1.20
19040;BMP180;9652;49.014;12.052;2023-02-28T03:02:49;98485.00;;;1.20
19040;BMP180;9652;49.014;12.052;2023-02-28T03:05:24;98493.00;;;1.20
19040;BMP180;9652;49.014;12.052;2023-02-28T03:07:52;98503.00;;;1.20
19040;BMP180;9652;49.014;12.052;2023-02-28T03:10:34;98508.00;;;1.20
19040;BMP180;9652;49.014;12.052;2023-02-28T03:13:42;98505.00;;;1.20
19040;BMP180;9652;49.014;12.052;2023-02-28T03:16:46;98491.00;;;1.20
19040;BMP180;9652;49.014;12.052;2023-02-28T03:19:45;98487.00;;;1.20
19040;BMP180;9652;49.014;12.052;2023-02-28T03:22:49;98488.00;;;1.10
19040;BMP180;9652;49.014;12.052;2023-02-28T03:25:27;98493.00;;;1.10
19040;BMP180;9652;49.014;12.052;2023-02-28T03:28:03;98493.00;;;1.10
19040;BMP180;9652;49.014;12.052;2023-02-28T03:30:41;98482.00;;;1.10
19040;BMP180;9652;49.014;12.052;2023-02-28T03:33:16;98491.00;;;1.10
19040;BMP180;9652;49.014;12.052;2023-02-28T03:35:53;98474.00;;;1.10
19040;BMP180;9652;49.014;12.052;2023-02-28T03:38:29;98497.00;;;1.10
19040;BMP180;9652;49.014;12.052;2023-02-28T03:41:07;98494.00;;;1.10
19040;BMP180;9652;49.014;12.052;2023-02-28T03:43:45;98496.00;;;1.10
19040;BMP180;9652;49.014;12.052;2023-02-28T03:46:18;98499.00;;;1.10
19040;BMP180;9652;49.014;12.052;2023-02-28T03:48:54;98499.00;;;1.10
19040;BMP180;9652;49.014;12.052;2023-02-28T03:51:26;98496.00;;;1.10
19040;BMP180;9652;49.014;12.052;2023-02-28T03:53:59;98491.00;;;1.10
19040;BMP180;9652;49.014;12.052;2023-02-28T03:56:36;98480.00;;;1.10
19040;BMP180;9652;49.014;12.052;2023-02-28T03:59:13;98472.00;;;1.10
19040;BMP180;9652;49.014;12.052;2023-02-28T04:01:45;98495.00;;;1.20
19040;BMP180;9652;49.014;12.052;2023-02-28T04:04:14;98505.00;;;1.20
19040;BMP180;9652;49.014;12.052;2023-02-28T04:06:43;98509.00;;;1.20
19040;BMP180;9652;49.014;12.052;2023-02-28T04:09:14;98499.00;;;1.20
19040;BMP180;9652;49.014;12.052;2023-02-28T04:11:44;98503.00;;;1.20
19040;BMP180;9652;49.014;12.052;2023-02-28T04:14:12;98508.00;;;1.20
19040;BMP180;9652;49.014;12.052;2023-02-28T04:16:42;98503.00;;;1.10
19040;BMP180;9652;49.014;12.052;2023-02-28T04:19:11;98491.00;;;1.10
19040;BMP180;9652;49.014;12.052;2023-02-28T04:21:42;98495.00;;;1.10
19040;BMP180;9652;49.014;12.052;2023-02-28T04:24:14;98474.00;;;1.10
19040;BMP180;9652;49.014;12.052;2023-02-28T04:26:45;98487.00;;;1.20
19040;BMP180;9652;49.014;12.052;2023-02-28T04:29:18;98466.00;;;1.10
19040;BMP180;9652;49.014;12.052;2023-02-28T04:31:45;98497.00;;;1.10
19040;BMP180;9652;49.014;12.052;2023-02-28T04:34:12;98508.00;;;1.10
19040;BMP180;9652;49.014;12.052;2023-02-28T04:36:40;98499.00;;;1.10
19040;BMP180;9652;49.014;12.052;2023-02-28T04:39:07;98496.00;;;1.10
19040;BMP180;9652;49.014;12.052;2023-02-28T04:41:37;98481.00;;;1.10
19040;BMP180;9652;49.014;12.052;2023-02-28T04:44:04;98483.00;;;1.10
19040;BMP180;9652;49.014;12.052;2023-02-28T04:46:32;98493.00;;;1.10
19040;BMP180;9652;49.014;12.052;2023-02-28T04:48:59;98503.00;;;1.10
19040;BMP180;9652;49.014;12.052;2023-02-28T04:51:26;98502.00;;;1.10
19040;BMP180;9652;49.014;12.052;2023-02-28T04:53:53;98495.00;;;1.10
19040;BMP180;9652;49.014;12.052;2023-02-28T04:56:22;98496.00;;;1.10
19040;BMP180;9652;49.014;12.052;2023-02-28T04:58:50;98493.00;;;1.10
19040;BMP180;9652;49.014;12.052;2023-02-28T05:01:23;98509.00;;;1.10
19040;BMP180;9652;49.014;12.052;2023-02-28T05:03:52;98500.00;;;1.10
19040;BMP180;9652;49.014;12.052;2023-02-28T05:06:21;98504.00;;;1.10
19040;BMP180;9652;49.014;12.052;2023-02-28T05:08:49;98507.00;;;1.00
19040;BMP180;9652;49.014;12.052;2023-02-28T05:11:20;98508.00;;;1.10
19040;BMP180;9652;49.014;12.052;2023-02-28T05:13:50;98506.00;;;1.10
19040;BMP180;9652;49.014;12.052;2023-02-28T05:16:18;98493.00;;;1.10
19040;BMP180;9652;49.014;12.052;2023-02-28T05:18:46;98494.00;;;1.10
19040;BMP180;9652;49.014;12.052;2023-02-28T05:21:36;98514.00;;;1.10
19040;BMP180;9652;49.014;12.052;2023-02-28T05:24:06;98502.00;;;1.10
19040;BMP180;9652;49.014;12.052;2023-02-28T05:26:35;98506.00;;;1.10
19040;BMP180;9652;49.014;12.052;2023-02-28T05:29:04;98494.00;;;1.10
19040;BMP180;9652;49.014;12.052;2023-02-28T05:31:32;98513.00;;;1.10
19040;BMP180;9652;49.014;12.052;2023-02-28T05:33:59;98510.00;;;1.10
19040;BMP180;9652;49.014;12.052;2023-02-28T05:36:27;98514.00;;;1.10
19040;BMP180;9652;49.014;12.052;2023-02-28T05:38:54;98520.00;;;1.10
19040;BMP180;9652;49.014;12.052;2023-02-28T05:41:21;98520.00;;;1.10
19040;BMP180;9652;49.014;12.052;2023-02-28T05:43:48;98509.00;;;1.10
19040;BMP180;9652;49.014;12.052;2023-02-28T05:46:17;98506.00;;;1.10
19040;BMP180;9652;49.014;12.052;2023-02-28T05:48:47;98499.00;;;1.10
19040;BMP180;9652;49.014;12.052;2023-02-28T05:51:15;98520.00;;;1.10
19040;BMP180;9652;49.014;12.052;2023-02-28T05:53:43;98498.00;;;1.10
19040;BMP180;9652;49.014;12.052;2023-02-28T05:56:10;98523.00;;;1.10
19040;BMP180;9652;49.014;12.052;2023-02-28T05:58:37;98530.00;;;1.20
19040;BMP180;9652;49.014;12.052;2023-02-28T06:03:58;98519.00;;;1.10
19040;BMP180;9652;49.014;12.052;2023-02-28T06:06:25;98498.00;;;1.10
19040;BMP180;9652;49.014;12.052;2023-02-28T06:08:52;98520.00;;;1.20
19040;BMP180;9652;49.014;12.052;2023-02-28T06:11:19;98528.00;;;1.10
19040;BMP180;9652;49.014;12.052;2023-02-28T06:13:47;98528.00;;;1.10
19040;BMP180;9652;49.014;12.052;2023-02-28T06:16:14;98540.00;;;1.20
19040;BMP180;9652;49.014;12.052;2023-02-28T06:18:41;98530.00;;;1.20
19040;BMP180;9652;49.014;12.052;2023-02-28T06:21:09;98540.00;;;1.20
19040;BMP180;9652;49.014;12.052;2023-02-28T06:23:36;98537.00;;;1.20
19040;BMP180;9652;49.014;12.052;2023-02-28T06:26:04;98539.00;;;1.20
19040;BMP180;9652;49.014;12.052;2023-02-28T06:28:31;98549.00;;;1.30
19040;BMP180;9652;49.014;12.052;2023-02-28T06:31:07;98549.00;;;1.30
19040;BMP180;9652;49.014;12.052;2023-02-28T06:33:35;98550.00;;;1.30
19040;BMP180;9652;49.014;12.052;2023-02-28T06:36:03;98543.00;;;1.40
19040;BMP180;9652;49.014;12.052;2023-02-28T06:38:32;98548.00;;;1.40
19040;BMP180;9652;49.014;12.052;2023-02-28T06:41:01;98550.00;;;1.40
19040;BMP180;9652;49.014;12.052;2023-02-28T06:43:31;98552.00;;;1.50
19040;BMP180;9652;49.014;12.052;2023-02-28T06:46:01;98551.00;;;1.50
19040;BMP180;9652;49.014;12.052;2023-02-28T06:48:29;98541.00;;;1.60
19040;BMP180;9652;49.014;12.052;2023-02-28T06:51:03;98559.00;;;1.60
19040;BMP180;9652;49.014;12.052;2023-02-28T06:53:32;98565.00;;;1.70
19040;BMP180;9652;49.014;12.052;2023-02-28T06:56:03;98552.00;;;1.70
19040;BMP180;9652;49.014;12.052;2023-02-28T06:58:31;98554.00;;;1.80
19040;BMP180;9652;49.014;12.052;2023-02-28T07:00:58;98563.00;;;1.80
19040;BMP180;9652;49.014;12.052;2023-02-28T07:03:25;98563.00;;;1.90
19040;BMP180;9652;49.014;12.052;2023-02-28T07:05:52;98547.00;;;1.90
19040;BMP180;9652;49.014;12.052;2023-02-28T07:08:19;98556.00;;;1.90
19040;BMP180;9652;49.014;12.052;2023-02-28T07:10:51;98566.00;;;2.00
19040;BMP180;9652;49.014;12.052;2023-02-28T07:13:18;98571.00;;;2.00
19040;BMP180;9652;49.014;12.052;2023-02-28T07:15:53;98550.00;;;2.10
19040;BMP180;9652;49.014;12.052;2023-02-28T07:18:21;98548.00;;;2.10
19040;BMP180;9652;49.014;12.052;2023-02-28T07:20:49;98548.00;;;2.20
19040;BMP180;9652;49.014;12.052;2023-02-28T07:23:16;98567.00;;;2.20
19040;BMP180;9652;49.014;12.052;2023-02-28T07:25:44;98564.00;;;2.30
19040;BMP180;9652;49.014;12.052;2023-02-28T07:28:13;98585.00;;;2.30
19040;BMP180;9652;49.014;12.052;2023-02-28T07:30:40;98571.00;;;2.40
19040;BMP180;9652;49.014;12.052;2023-02-28T07:33:08;98570.00;;;2.40
19040;BMP180;9652;49.014;12.052;2023-02-28T07:35:35;98561.00;;;2.50
19040;BMP180;9652;49.014;12.052;2023-02-28T07:38:03;98562.00;;;2.50
19040;BMP180;9652;49.014;12.052;2023-02-28T07:40:30;98575.00;;;2.50
19040;BMP180;9652;49.014;12.052;2023-02-28T07:42:59;98570.00;;;2.60
19040;BMP180;9652;49.014;12.052;2023-02-28T07:45:29;98580.00;;;2.60
19040;BMP180;9652;49.014;12.052;2023-02-28T07:47:57;98587.00;;;2.70
19040;BMP180;9652;49.014;12.052;2023-02-28T07:50:24;98577.00;;;2.70
19040;BMP180;9652;49.014;12.052;2023-02-28T07:52:51;98585.00;;;2.80
19040;BMP180;9652;49.014;12.052;2023-02-28T07:55:18;98597.00;;;2.80
19040;BMP180;9652;49.014;12.052;2023-02-28T07:57:45;98576.00;;;2.90
19040;BMP180;9652;49.014;12.052;2023-02-28T08:00:13;98573.00;;;3.00
19040;BMP180;9652;49.014;12.052;2023-02-28T08:02:42;98574.00;;;3.00
19040;BMP180;9652;49.014;12.052;2023-02-28T08:05:09;98575.00;;;3.10
19040;BMP180;9652;49.014;12.052;2023-02-28T08:07:36;98518.00;;;3.20
19040;BMP180;9652;49.014;12.052;2023-02-28T08:10:04;98575.00;;;3.20
19040;BMP180;9652;49.014;12.052;2023-02-28T08:12:32;98578.00;;;3.30
19040;BMP180;9652;49.014;12.052;2023-02-28T08:15:01;98584.00;;;3.30
19040;BMP180;9652;49.014;12.052;2023-02-28T08:17:29;98579.00;;;3.40
19040;BMP180;9652;49.014;12.052;2023-02-28T08:19:57;98584.00;;;3.40
19040;BMP180;9652;49.014;12.052;2023-02-28T08:22:25;98580.00;;;3.50
19040;BMP180;9652;49.014;12.052;2023-02-28T08:24:52;98583.00;;;3.60
19040;BMP180;9652;49.014;12.052;2023-02-28T08:27:19;98589.00;;;3.70
19040;BMP180;9652;49.014;12.052;2023-02-28T08:29:46;98582.00;;;3.80
19040;BMP180;9652;49.014;12.052;2023-02-28T08:32:13;98588.00;;;3.80
19040;BMP180;9652;49.014;12.052;2023-02-28T08:34:49;98600.00;;;3.90
19040;BMP180;9652;49.014;12.052;2023-02-28T08:37:21;98584.00;;;4.00
19040;BMP180;9652;49.014;12.052;2023-02-28T08:39:48;98604.00;;;4.10
19040;BMP180;9652;49.014;12.052;2023-02-28T08:42:15;98596.00;;;4.10
19040;BMP180;9652;49.014;12.052;2023-02-28T08:44:42;98590.00;;;4.10
19040;BMP180;9652;49.014;12.052;2023-02-28T08:47:10;98601.00;;;4.20
19040;BMP180;9652;49.014;12.052;2023-02-28T08:49:37;98605.00;;;4.20
19040;BMP180;9652;49.014;12.052;2023-02-28T08:52:04;98609.00;;;4.20
19040;BMP180;9652;49.014;12.052;2023-02-28T08:54:33;98613.00;;;4.30
19040;BMP180;9652;49.014;12.052;2023-02-28T08:57:00;98563.00;;;4.30
19040;BMP180;9652;49.014;12.052;2023-02-28T08:59:27;98607.00;;;4.40
19040;BMP180;9652;49.014;12.052;2023-02-28T09:01:54;98600.00;;;4.40
19040;BMP180;9652;49.014;12.052;2023-02-28T09:04:21;98610.00;;;4.50
19040;BMP180;9652;49.014;12.052;2023-02-28T09:06:49;98587.00;;;4.50
19040;BMP180;9652;49.014;12.052;2023-02-28T09:09:16;98602.00;;;4.60
19040;BMP180;9652;49.014;12.052;2023-02-28T09:11:44;98605.00;;;4.60
19040;BMP180;9652;49.014;12.052;2023-02-28T09:14:11;98601.00;;;4.70
19040;BMP180;9652;49.014;12.052;2023-02-28T09:16:38;98601.00;;;4.80
19040;BMP180;9652;49.014;12.052;2023-02-28T09:19:05;98597.00;;;4.80
19040;BMP180;9652;49.014;12.052;2023-02-28T09:21:32;98606.00;;;4.90
19040;BMP180;9652;49.014;12.052;2023-02-28T09:23:59;98583.00;;;4.90
19040;BMP180;9652;49.014;12.052;2023-02-28T09:26:27;98605.00;;;4.90
19040;BMP180;9652;49.014;12.052;2023-02-28T09:28:56;98610.00;;;4.80
19040;BMP180;9652;49.014;12.052;2023-02-28T09:31:27;98585.00;;;5.10
19040;BMP180;9652;49.014;12.052;2023-02-28T09:33:56;98587.00;;;5.10
19040;BMP180;9652;49.014;12.052;2023-02-28T09:36:26;98607.00;;;5.20
19040;BMP180;9652;49.014;12.052;2023-02-28T09:38:54;98604.00;;;5.30
19040;BMP180;9652;49.014;12.052;2023-02-28T09:41:26;98598.00;;;5.30
19040;BMP180;9652;49.014;12.052;2023-02-28T09:44:01;98609.00;;;5.40
19040;BMP180;9652;49.014;12.052;2023-02-28T09:46:33;98612.00;;;5.40
19040;BMP180;9652;49.014;12.052;2023-02-28T09:49:05;98608.00;;;5.50
19040;BMP180;9652;49.014;12.052;2023-02-28T09:51:47;98594.00;;;5.60
19040;BMP180;9652;49.014;12.052;2023-02-28T09:54:20;98597.00;;;5.60
19040;BMP180;9652;49.014;12.052;2023-02-28T09:56:53;98595.00;;;5.70
19040;BMP180;9652;49.014;12.052;2023-02-28T09:59:41;98611.00;;;5.70
19040;BMP180;9652;49.014;12.052;2023-02-28T10:02:39;98609.00;;;5.80
19040;BMP180;9652;49.014;12.052;2023-02-28T10:05:11;98600.00;;;5.80
19040;BMP180;9652;49.014;12.052;2023-02-28T10:07:58;98606.00;;;5.90
19040;BMP180;9652;49.014;12.052;2023-02-28T10:10:35;98614.00;;;5.90
19040;BMP180;9652;49.014;12.052;2023-02-28T10:13:13;98622.00;;;6.00
19040;BMP180;9652;49.014;12.052;2023-02-28T10:15:46;98614.00;;;6.00
19040;BMP180;9652;49.014;12.052;2023-02-28T10:18:21;98618.00;;;6.00
19040;BMP180;9652;49.014;12.052;2023-02-28T10:20:51;98606.00;;;6.10
19040;BMP180;9652;49.014;12.052;2023-02-28T10:23:24;98616.00;;;6.10
19040;BMP180;9652;49.014;12.052;2023-02-28T10:25:57;98612.00;;;6.10
19040;BMP180;9652;49.014;12.052;2023-02-28T10:28:27;98622.00;;;6.00
19040;BMP180;9652;49.014;12.052;2023-02-28T10:30:58;98600.00;;;6.30
19040;BMP180;9652;49.014;12.052;2023-02-28T10:33:30;98612.00;;;6.30
19040;BMP180;9652;49.014;12.052;2023-02-28T10:35:58;98616.00;;;6.40
19040;BMP180;9652;49.014;12.052;2023-02-28T10:38:28;98627.00;;;6.40
19040;BMP180;9652;49.014;12.052;2023-02-28T10:41:06;98615.00;;;6.40
19040;BMP180;9652;49.014;12.052;2023-02-28T10:43:34;98601.00;;;6.50
19040;BMP180;9652;49.014;12.052;2023-02-28T10:46:12;98604.00;;;6.50
19040;BMP180;9652;49.014;12.052;2023-02-28T10:48:44;98603.00;;;6.50
19040;BMP180;9652;49.014;12.052;2023-02-28T10:51:15;98621.00;;;6.60
19040;BMP180;9652;49.014;12.052;2023-02-28T10:53:49;98609.00;;;6.60
19040;BMP180;9652;49.014;12.052;2023-02-28T10:56:19;98607.00;;;6.70
19040;BMP180;9652;49.014;12.052;2023-02-28T10:58:54;98555.00;;;6.70
19040;BMP180;9652;49.014;12.052;2023-02-28T11:01:35;98602.00;;;6.70
19040;BMP180;9652;49.014;12.052;2023-02-28T11:04:03;98611.00;;;6.70
19040;BMP180;9652;49.014;12.052;2023-02-28T11:06:33;98615.00;;;6.80
19040;BMP180;9652;49.014;12.052;2023-02-28T11:09:05;98616.00;;;6.80
19040;BMP180;9652;49.014;12.052;2023-02-28T11:11:44;98612.00;;;6.80
19040;BMP180;9652;49.014;12.052;2023-02-28T11:14:21;98608.00;;;6.80
19040;BMP180;9652;49.014;12.052;2023-02-28T11:16:51;98606.00;;;6.80
19040;BMP180;9652;49.014;12.052;2023-02-28T11:19:24;98611.00;;;6.80
19040;BMP180;9652;49.014;12.052;2023-02-28T11:21:56;98613.00;;;6.70
19040;BMP180;9652;49.014;12.052;2023-02-28T11:24:28;98611.00;;;6.90
19040;BMP180;9652;49.014;12.052;2023-02-28T11:26:56;98613.00;;;7.00
19040;BMP180;9652;49.014;12.052;2023-02-28T11:29:26;98616.00;;;7.00
19040;BMP180;9652;49.014;12.052;2023-02-28T11:32:16;98607.00;;;7.00
19040;BMP180;9652;49.014;12.052;2023-02-28T11:34:44;98597.00;;;7.00
19040;BMP180;9652;49.014;12.052;2023-02-28T11:37:16;98589.00;;;7.10
19040;BMP180;9652;49.014;12.052;2023-02-28T11:39:45;98590.00;;;7.10
19040;BMP180;9652;49.014;12.052;2023-02-28T11:45:36;98593.00;;;7.10
19040;BMP180;9652;49.014;12.052;2023-02-28T11:48:20;98588.00;;;7.10
19040;BMP180;9652;49.014;12.052;2023-02-28T11:51:02;98602.00;;;7.20
19040;BMP180;9652;49.014;12.052;2023-02-28T11:53:55;98611.00;;;7.20
19040;BMP180;9652;49.014;12.052;2023-02-28T11:56:32;98595.00;;;7.20
19040;BMP180;9652;49.014;12.052;2023-02-28T12:02:25;98605.00;;;7.30
19040;BMP180;9652;49.014;12.052;2023-02-28T12:05:24;98603.00;;;7.40
19040;BMP180;9652;49.014;12.052;2023-02-28T12:08:15;98590.00;;;7.40
19040;BMP180;9652;49.014;12.052;2023-02-28T12:11:00;98583.00;;;7.50
19040;BMP180;9652;49.014;12.052;2023-02-28T12:13:45;98595.00;;;7.50
19040;BMP180;9652;49.014;12.052;2023-02-28T12:16:37;98590.00;;;7.60
19040;BMP180;9652;49.014;12.052;2023-02-28T12:19:20;98574.00;;;7.60
19040;BMP180;9652;49.014;12.052;2023-02-28T12:22:12;98589.00;;;7.60
19040;BMP180;9652;49.014;12.052;2023-02-28T12:25:29;98587.00;;;7.60
19040;BMP180;9652;49.014;12.052;2023-02-28T12:28:00;98582.00;;;7.60
19040;BMP180;9652;49.014;12.052;2023-02-28T12:30:31;98586.00;;;7.60
19040;BMP180;9652;49.014;12.052;2023-02-28T12:33:07;98590.00;;;7.70
19040;BMP180;9652;49.014;12.052;2023-02-28T12:35:40;98573.00;;;7.70
19040;BMP180;9652;49.014;12.052;2023-02-28T12:38:15;98580.00;;;7.70
19040;BMP180;9652;49.014;12.052;2023-02-28T12:40:52;98580.00;;;7.80
19040;BMP180;9652;49.014;12.052;2023-02-28T12:43:25;98577.00;;;7.70
19040;BMP180;9652;49.014;12.052;2023-02-28T12:45:59;98534.00;;;7.80
19040;BMP180;9652;49.014;12.052;2023-02-28T12:48:40;98565.00;;;7.80
19040;BMP180;9652;49.014;12.052;2023-02-28T12:51:09;98566.00;;;7.80
19040;BMP180;9652;49.014;12.052;2023-02-28T12:53:57;98559.00;;;7.80
19040;BMP180;9652;49.014;12.052;2023-02-28T12:56:41;98562.00;;;7.80
19040;BMP180;9652;49.014;12.052;2023-02-28T12:59:20;98545.00;;;7.80
19040;BMP180;9652;49.014;12.052;2023-02-28T13:02:15;98559.00;;;7.80
19040;BMP180;9652;49.014;12.052;2023-02-28T13:11:31;98556.00;;;7.90
19040;BMP180;9652;49.014;12.052;2023-02-28T13:14:01;98558.00;;;7.90
19040;BMP180;9652;49.014;12.052;2023-02-28T13:16:59;98556.00;;;8.00
19040;BMP180;9652;49.014;12.052;2023-02-28T13:19:29;98545.00;;;8.00
19040;BMP180;9652;49.014;12.052;2023-02-28T13:21:58;98559.00;;;8.00
19040;BMP180;9652;49.014;12.052;2023-02-28T13:24:45;98562.00;;;8.00
19040;BMP180;9652;49.014;12.052;2023-02-28T13:27:35;98495.00;;;8.00
19040;BMP180;9652;49.014;12.052;2023-02-28T13:31:05;98548.00;;;8.10
19040;BMP180;9652;49.014;12.052;2023-02-28T13:33:34;98556.00;;;8.10
19040;BMP180;9652;49.014;12.052;2023-02-28T13:36:26;98556.00;;;8.10
19040;BMP180;9652;49.014;12.052;2023-02-28T13:38:56;98571.00;;;8.20
19040;BMP180;9652;49.014;12.052;2023-02-28T13:41:46;98556.00;;;8.20
19040;BMP180;9652;49.014;12.052;2023-02-28T13:44:18;98557.00;;;8.20
19040;BMP180;9652;49.014;12.052;2023-02-28T13:47:22;98559.00;;;8.20
19040;BMP180;9652;49.014;12.052;2023-02-28T13:49:52;98565.00;;;8.20
19040;BMP180;9652;49.014;12.052;2023-02-28T13:52:23;98567.00;;;8.30
19040;BMP180;9652;49.014;12.052;2023-02-28T13:55:24;98564.00;;;8.30
19040;BMP180;9652;49.014;12.052;2023-02-28T13:58:12;98560.00;;;8.30
19040;BMP180;9652;49.014;12.052;2023-02-28T14:01:09;98563.00;;;8.30
19040;BMP180;9652;49.014;12.052;2023-02-28T14:04:02;98566.00;;;8.20
19040;BMP180;9652;49.014;12.052;2023-02-28T14:06:34;98563.00;;;8.20
19040;BMP180;9652;49.014;12.052;2023-02-28T14:09:19;98550.00;;;7.80
19040;BMP180;9652;49.014;12.052;2023-02-28T14:11:49;98565.00;;;8.20
19040;BMP180;9652;49.014;12.052;2023-02-28T14:14:54;98567.00;;;8.10
19040;BMP180;9652;49.014;12.052;2023-02-28T14:17:25;98561.00;;;8.10
19040;BMP180;9652;49.014;12.052;2023-02-28T14:19:53;98553.00;;;8.10
19040;BMP180;9652;49.014;12.052;2023-02-28T14:22:49;98555.00;;;8.10
19040;BMP180;9652;49.014;12.052;2023-02-28T14:25:30;98550.00;;;8.10
19040;BMP180;9652;49.014;12.052;2023-02-28T14:28:13;98566.00;;;8.10
19040;BMP180;9652;49.014;12.052;2023-02-28T14:31:01;98556.00;;;8.20
19040;BMP180;9652;49.014;12.052;2023-02-28T14:34:03;98564.00;;;8.20
19040;BMP180;9652;49.014;12.052;2023-02-28T14:36:35;98564.00;;;8.00
19040;BMP180;9652;49.014;12.052;2023-02-28T14:39:10;98556.00;;;8.30
19040;BMP180;9652;49.014;12.052;2023-02-28T14:41:42;98561.00;;;8.30
19040;BMP180;9652;49.014;12.052;2023-02-28T14:44:17;98559.00;;;8.40
19040;BMP180;9652;49.014;12.052;2023-02-28T14:46:48;98552.00;;;8.50
19040;BMP180;9652;49.014;12.052;2023-02-28T14:49:20;98559.00;;;8.60
19040;BMP180;9652;49.014;12.052;2023-02-28T14:51:50;98562.00;;;8.60
19040;BMP180;9652;49.014;12.052;2023-02-28T14:54:28;98561.00;;;8.70
19040;BMP180;9652;49.014;12.052;2023-02-28T14:56:56;98568.00;;;8.70
19040;BMP180;9652;49.014;12.052;2023-02-28T14:59:27;98565.00;;;8.70
19040;BMP180;9652;49.014;12.052;2023-02-28T15:02:21;98566.00;;;8.60
19040;BMP180;9652;49.014;12.052;2023-02-28T15:04:58;98562.00;;;8.50
19040;BMP180;9652;49.014;12.052;2023-02-28T15:07:26;98545.00;;;8.40
19040;BMP180;9652;49.014;12.052;2023-02-28T15:10:19;98566.00;;;8.40
19040;BMP180;9652;49.014;12.052;2023-02-28T15:12:52;98567.00;;;8.30
19040;BMP180;9652;49.014;12.052;2023-02-28T15:15:25;98548.00;;;8.20
19040;BMP180;9652;49.014;12.052;2023-02-28T15:17:56;98557.00;;;8.10
19040;BMP180;9652;49.014;12.052;2023-02-28T15:20:26;98562.00;;;8.10
19040;BMP180;9652;49.014;12.052;2023-02-28T15:22:56;98566.00;;;8.00